Salalah, Oman

11:34 AM GST on September 22, 2014 (GMT +0400)
Salalah | Change Station
CLOSE
Current Station
Airport
Location: Salalah,
Elevation: 66 ft
Nearby Weather Stations

Elev 66 ft 17.04 °N, 54.09 °E | Updated 44 minutes ago

Scattered Clouds
Scattered Clouds
86 °F
Feels Like 95 °F
N
8
Wind Variable Wind from SSE

Today
High -- | Low -- °F
--% Chance of Precip.
Yesterday
High -- | Low -- °F
Precip. -- in
6:12 AM 6:20 PM
Waning Crescent, 4% visible
Pressure 29.80 in
Visibility 6.2 miles
Clouds Few 1200 ft
Scattered Clouds 2500 ft
Heat Index 95 °F
Dew Point 75 °F
Humidity 70%
Rainfall 0.00 in
Snow Depth Not available.
UV 12 out of 12
Pollen Not available.
Air Quality Not available.
Flu Activity Not available.
METAR OOSA 220650Z 15007KT 9999 FEW012 SCT025 30/24 Q1009 NOSIG

More Conditions Fewer Conditions

Pressure 29.80 in
Visibility 6.2 miles
Clouds Few 1200 ft
Scattered Clouds 2500 ft
Heat Index 95 °F
Dew Point 75 °F
Humidity 70%
Rainfall 0.00 in
Snow Depth Not available.
UV 12 out of 12
Pollen Not available.
Air Quality Not available.
Flu Activity Not available.
METAR OOSA 220650Z 15007KT 9999 FEW012 SCT025 30/24 Q1009 NOSIG

More Conditions Fewer Conditions

10-Day Weather Forecast

Almanac

Astronomy

Sep. 22, 2014 Rise Set
Actual Time 6:12 AM GST 6:20 PM GST
Civil Twilight 5:50 AM GST 6:41 PM GST
Nautical Twilight 5:25 AM GST 7:06 PM GST
Astronomical Twilight 5:00 AM GST 7:32 PM GST
Moon 4:31 AM GST 5:06 PM GST
Length of Visible Light 12h 50m
Length of Day
12h 07m
Tomorrow will be 0m 57s shorter.
Waning Crescent, 4% of the Moon is Illuminated
Today
Waning Crescent
Sep 24
New
Oct 1
First Quarter
Oct 8
Full
Oct 15
Last Quarter

Yesterday's Extremes

Country Highs Country Lows

Community

WunderPhotos

Upload Photos

1,755,392 photos uploaded!

Nearby

Snow Depth

Not available.

Earthquake Activity

City Distance Mag. Time & Date
No recent earthquake activity has been reported nearby.
Minimum magnitude displayed is 2.5.

Coastal Water Temperatures

Place Temperature
No Stations Reporting

Nearby Weather Stations